createdAt,value
2023-09-03T00:01:42.080Z,155075.78
2023-09-03T00:04:15.673Z,155079.72
2023-09-03T00:06:46.476Z,155073.16
2023-09-03T00:09:19.259Z,155071.88
2023-09-03T00:11:49.844Z,155069.25
2023-09-03T00:14:20.409Z,155060.19
2023-09-03T00:16:51.188Z,155054.97
2023-09-03T00:19:26.023Z,155052.34
2023-09-03T00:21:56.591Z,155044.50
2023-09-03T00:24:28.891Z,155043.22
2023-09-03T00:26:59.330Z,155034.13
2023-09-03T00:29:30.658Z,155027.63
2023-09-03T00:32:01.134Z,155031.53
2023-09-03T00:34:35.214Z,155026.34
2023-09-03T00:37:06.008Z,155028.91
2023-09-03T00:39:38.312Z,155021.13
2023-09-03T00:42:08.895Z,155012.00
2023-09-03T00:44:40.799Z,155013.28
2023-09-03T00:47:12.582Z,155006.81
2023-09-03T00:49:48.325Z,155001.59
2023-09-03T00:52:21.006Z,154998.97
2023-09-03T00:54:51.807Z,154984.66
2023-09-03T00:57:22.209Z,154980.78
2023-09-03T00:59:54.982Z,154982.06
2023-09-03T01:02:26.467Z,154992.47
2023-09-03T01:05:00.032Z,154984.66
2023-09-03T01:07:32.206Z,154995.09
2023-09-03T01:10:03.075Z,154988.56
2023-09-03T01:12:40.260Z,154979.44
2023-09-03T01:15:17.834Z,154983.34
2023-09-03T01:18:01.036Z,154975.56
2023-09-03T01:20:40.013Z,154972.94
2023-09-03T01:23:34.262Z,154965.16
2023-09-03T01:26:15.395Z,154957.34
2023-09-03T01:28:51.478Z,154952.13
2023-09-03T01:31:24.099Z,154952.13
2023-09-03T01:34:03.260Z,154949.50
2023-09-03T01:36:36.642Z,154946.94
2023-09-03T01:39:07.664Z,154913.09
2023-09-03T01:41:39.537Z,154917.00
2023-09-03T01:44:13.437Z,154914.38
2023-09-03T01:46:50.124Z,154913.09
2023-09-03T01:49:35.056Z,154905.25
2023-09-03T01:52:16.233Z,154900.06
2023-09-03T01:54:50.997Z,154896.19
2023-09-03T01:57:28.248Z,154889.66
2023-09-03T02:00:04.888Z,154884.44
2023-09-03T02:02:46.443Z,154875.34
2023-09-03T02:05:17.839Z,154842.78
2023-09-03T02:07:48.261Z,154851.94
2023-09-03T02:10:21.087Z,154855.88
2023-09-03T02:12:51.876Z,154855.88
2023-09-03T02:15:26.792Z,154849.28
2023-09-03T02:17:57.913Z,154827.19
2023-09-03T02:20:29.270Z,154795.97
2023-09-03T02:23:00.064Z,154803.75
2023-09-03T02:25:31.536Z,154801.19
2023-09-03T02:28:02.155Z,154782.94
2023-09-03T02:30:36.674Z,154785.53
2023-09-03T02:33:07.803Z,154782.94
2023-09-03T02:35:41.448Z,154758.22
2023-09-03T02:38:11.979Z,154753.03
2023-09-03T02:40:42.692Z,154724.41
2023-09-03T02:43:13.154Z,154743.91
2023-09-03T02:45:46.454Z,154754.31
2023-09-03T02:48:19.617Z,154736.09
2023-09-03T02:50:50.439Z,154715.28
2023-09-03T02:53:21.059Z,154724.41
2023-09-03T02:55:51.952Z,154737.44
2023-09-03T02:58:22.760Z,154733.50
2023-09-03T03:00:59.296Z,154736.09
2023-09-03T03:03:30.243Z,154730.88
2023-09-03T03:06:01.741Z,154724.41
2023-09-03T03:08:32.831Z,154717.91
2023-09-03T03:11:11.763Z,154708.81
2023-09-03T03:13:47.724Z,154714.00
2023-09-03T03:16:23.289Z,154716.63
2023-09-03T03:18:54.939Z,154720.50
2023-09-03T03:21:30.353Z,154724.41
2023-09-03T03:24:06.372Z,154703.59
2023-09-03T03:26:41.793Z,154694.50
2023-09-03T03:29:17.944Z,154697.13
2023-09-03T03:31:56.053Z,154702.31
2023-09-03T03:34:26.531Z,154695.78
2023-09-03T03:37:00.696Z,154712.72
2023-09-03T03:39:31.545Z,154712.72
2023-09-03T03:42:01.952Z,154704.88
2023-09-03T03:44:33.296Z,154707.50
2023-09-03T03:47:07.533Z,154729.59
2023-09-03T03:49:38.083Z,154750.41
2023-09-03T03:52:10.221Z,154764.72
2023-09-03T03:54:40.836Z,154753.03
2023-09-03T03:57:13.676Z,154772.53
2023-09-03T03:59:44.639Z,154754.31
2023-09-03T04:02:18.412Z,154766.00
2023-09-03T04:04:50.455Z,154763.44
2023-09-03T04:07:44.425Z,154772.53
2023-09-03T04:10:16.991Z,154767.34
2023-09-03T04:12:58.221Z,154755.59
2023-09-03T04:15:30.473Z,154754.31
2023-09-03T04:18:03.863Z,154754.31
2023-09-03T04:20:35.084Z,154751.75
2023-09-03T04:23:06.516Z,154750.41
2023-09-03T04:25:37.605Z,154747.81
2023-09-03T04:28:10.246Z,154753.03
2023-09-03T04:30:44.724Z,154751.75
2023-09-03T04:33:18.266Z,154756.94
2023-09-03T04:35:48.815Z,154750.41
2023-09-03T04:38:20.818Z,154764.72
2023-09-03T04:40:51.737Z,154771.25
2023-09-03T04:43:24.194Z,154784.22
2023-09-03T04:46:02.717Z,154799.84
2023-09-03T04:48:37.555Z,154819.34
2023-09-03T04:51:11.097Z,154812.88
2023-09-03T04:53:42.028Z,154815.44
2023-09-03T04:56:19.934Z,154824.56
2023-09-03T04:58:52.539Z,154828.47
2023-09-03T05:01:30.926Z,154825.91
2023-09-03T05:04:25.425Z,154842.78
2023-09-03T05:06:57.161Z,154801.19
2023-09-03T05:09:27.680Z,154779.03
2023-09-03T05:12:02.747Z,154777.75
2023-09-03T05:14:39.896Z,154794.63
2023-09-03T05:20:36.367Z,154841.50
2023-09-03T05:23:17.134Z,154845.38
2023-09-03T05:25:56.255Z,154864.94
2023-09-03T05:28:38.903Z,154876.69
2023-09-03T05:31:33.275Z,154905.25
2023-09-03T05:37:50.521Z,154965.16
2023-09-03T05:44:13.805Z,155064.06
2023-09-03T05:50:00.492Z,155092.69
2023-09-03T05:52:45.823Z,155108.38
2023-09-03T05:55:28.150Z,155114.91
2023-09-03T05:58:04.489Z,155129.22
2023-09-03T06:01:03.797Z,155159.19
2023-09-03T06:03:36.246Z,155200.84
2023-09-03T06:06:16.656Z,155226.88
2023-09-03T06:08:48.879Z,155233.34
2023-09-03T06:11:20.365Z,155216.44
2023-09-03T06:13:57.343Z,155237.28
2023-09-03T06:16:34.667Z,155230.78
2023-09-03T06:19:06.601Z,155256.81
2023-09-03T06:21:40.687Z,155268.56
2023-09-03T06:24:24.828Z,155268.56
2023-09-03T06:27:00.068Z,155286.75
2023-09-03T06:29:54.888Z,155299.81
2023-09-03T06:32:26.539Z,155312.81
2023-09-03T06:34:59.700Z,155332.41
2023-09-03T06:37:31.853Z,155329.81
2023-09-03T06:40:10.019Z,155379.31
2023-09-03T06:42:41.433Z,155457.47
2023-09-03T06:45:44.076Z,155491.34
2023-09-03T06:48:25.900Z,155505.69
2023-09-03T06:51:07.993Z,155595.66
2023-09-03T06:53:41.254Z,155647.81
2023-09-03T06:56:14.822Z,155683.03
2023-09-03T06:58:46.542Z,155630.84
2023-09-03T07:01:20.814Z,155718.22
2023-09-03T07:03:54.481Z,155705.16
2023-09-03T07:06:25.141Z,155756.00
2023-09-03T07:08:56.677Z,155780.81
2023-09-03T07:11:27.379Z,155735.16
2023-09-03T07:13:57.879Z,155706.44
2023-09-03T07:16:28.810Z,155659.53
2023-09-03T07:19:02.678Z,155655.63
2023-09-03T07:21:41.966Z,155671.25
2023-09-03T07:24:17.336Z,155675.19
2023-09-03T07:26:51.172Z,155739.06
2023-09-03T07:29:22.012Z,155750.78
2023-09-03T07:31:54.843Z,155748.19
2023-09-03T07:34:31.601Z,155813.44
2023-09-03T07:37:07.199Z,155806.94
2023-09-03T07:39:42.948Z,155830.38
2023-09-03T07:42:14.161Z,155829.09
2023-09-03T07:44:47.476Z,155869.53
2023-09-03T07:47:18.998Z,155825.16
2023-09-03T07:49:53.068Z,155833.00
2023-09-03T07:52:25.383Z,155855.16
2023-09-03T07:54:56.276Z,155846.03
2023-09-03T07:57:39.891Z,155816.03
2023-09-03T08:00:11.844Z,155823.88
2023-09-03T08:02:48.733Z,155810.81
2023-09-03T08:05:23.194Z,155809.53
2023-09-03T08:07:56.271Z,155797.81
2023-09-03T08:10:34.652Z,155836.94
2023-09-03T08:15:57.844Z,155817.38
2023-09-03T08:18:39.356Z,155766.47
2023-09-03T08:21:12.604Z,155770.41
2023-09-03T08:23:43.009Z,155799.09
2023-09-03T08:26:13.938Z,155814.75
2023-09-03T08:28:44.343Z,155848.66
2023-09-03T08:31:14.974Z,155872.16
2023-09-03T08:33:45.922Z,155881.28
2023-09-03T08:36:19.267Z,155887.78
2023-09-03T08:38:49.282Z,155898.22
2023-09-03T08:41:19.744Z,155900.81
2023-09-03T08:43:53.318Z,155915.16
2023-09-03T08:46:27.990Z,156033.94
2023-09-03T08:48:58.667Z,156020.91
2023-09-03T08:51:33.277Z,156037.84
2023-09-03T08:54:08.013Z,156100.47
2023-09-03T08:56:39.182Z,156215.41
2023-09-03T08:59:09.692Z,156153.97
2023-09-03T09:01:41.643Z,156150.06
2023-09-03T09:04:13.424Z,156215.41
2023-09-03T09:06:51.096Z,156237.56
2023-09-03T09:09:22.720Z,156313.28
2023-09-03T09:12:01.717Z,156263.69
2023-09-03T09:14:40.964Z,156347.25
2023-09-03T09:17:17.078Z,156391.69
2023-09-03T09:19:47.472Z,156330.28
2023-09-03T09:22:22.028Z,156352.47
2023-09-03T09:24:55.643Z,156344.59
2023-09-03T09:27:27.626Z,156308.06
2023-09-03T09:30:17.606Z,156306.78
2023-09-03T09:32:49.647Z,156342.03
2023-09-03T09:35:41.747Z,156349.81
2023-09-03T09:38:17.304Z,156399.50
2023-09-03T09:40:49.227Z,156370.81
2023-09-03T09:43:20.398Z,156420.44
2023-09-03T09:45:53.819Z,156502.69
2023-09-03T09:48:24.761Z,156531.44
2023-09-03T09:50:57.394Z,156582.41
2023-09-03T09:53:32.719Z,156630.78
2023-09-03T09:56:04.679Z,156575.91
2023-09-03T09:58:42.532Z,156587.66
2023-09-03T10:01:14.458Z,156573.28
2023-09-03T10:03:46.974Z,156652.97
2023-09-03T10:06:18.384Z,156739.25
2023-09-03T10:08:53.457Z,156715.72
2023-09-03T10:11:25.673Z,156685.66
2023-09-03T10:13:56.496Z,156654.25
2023-09-03T10:16:30.460Z,156679.09
2023-09-03T10:19:07.082Z,156497.47
2023-09-03T10:24:18.591Z,156565.47
2023-09-03T10:26:56.608Z,156637.28
2023-09-03T10:29:31.434Z,156577.19
2023-09-03T10:32:06.576Z,156539.25
2023-09-03T10:34:40.796Z,156540.59
2023-09-03T10:37:16.014Z,156506.63
2023-09-03T10:39:50.199Z,156485.72
2023-09-03T10:42:33.381Z,156498.75
2023-09-03T10:45:05.351Z,156506.63
2023-09-03T10:47:36.636Z,156492.25
2023-09-03T10:50:07.859Z,156506.63
2023-09-03T10:52:43.339Z,156423.03
2023-09-03T10:55:19.488Z,156403.44
2023-09-03T10:57:51.511Z,156417.81
2023-09-03T11:00:26.713Z,156436.09
2023-09-03T11:03:25.151Z,156419.09
2023-09-03T11:06:21.227Z,156381.25
2023-09-03T11:08:52.113Z,156389.06
2023-09-03T11:11:26.934Z,156403.44
2023-09-03T11:14:00.033Z,156406.06
2023-09-03T11:16:35.448Z,156412.56
2023-09-03T11:19:09.322Z,156365.59
2023-09-03T11:21:41.134Z,156441.31
2023-09-03T11:24:16.721Z,156480.50
2023-09-03T11:26:51.333Z,156490.94
2023-09-03T11:29:27.626Z,156503.97
2023-09-03T11:32:02.037Z,156377.31
2023-09-03T11:34:34.531Z,156438.69
2023-09-03T11:37:07.252Z,156453.06
2023-09-03T11:39:37.638Z,156406.06
2023-09-03T11:42:15.628Z,156344.59
2023-09-03T11:44:46.222Z,156334.16
2023-09-03T11:47:16.916Z,156334.16
2023-09-03T11:49:49.690Z,156366.88
2023-09-03T11:52:21.203Z,156410.00
2023-09-03T11:54:52.547Z,156421.72
2023-09-03T11:57:25.990Z,156426.94
2023-09-03T11:59:56.759Z,156445.25
2023-09-03T12:02:30.577Z,156430.88
2023-09-03T12:05:03.160Z,156389.06
2023-09-03T12:07:33.792Z,156453.06
2023-09-03T12:10:04.793Z,156436.09
2023-09-03T12:12:38.527Z,156443.91
2023-09-03T12:15:24.317Z,156423.03
2023-09-03T12:17:55.871Z,156493.53
2023-09-03T12:20:36.637Z,156476.56
2023-09-03T12:23:20.017Z,156349.81
2023-09-03T12:25:50.868Z,156417.81
2023-09-03T12:28:37.917Z,156399.50
2023-09-03T12:31:10.042Z,156406.06
2023-09-03T12:33:53.154Z,156385.19
2023-09-03T12:36:25.293Z,156434.75
2023-09-03T12:39:01.402Z,156496.19
2023-09-03T12:41:36.746Z,156557.59
2023-09-03T12:44:16.827Z,156618.97
2023-09-03T12:46:47.331Z,156722.22
2023-09-03T12:49:18.023Z,156723.50
2023-09-03T12:51:49.632Z,156736.66
2023-09-03T12:54:21.276Z,156724.88
2023-09-03T12:56:55.621Z,156509.19
2023-09-03T12:59:29.698Z,156437.41
2023-09-03T13:02:02.673Z,156399.50
2023-09-03T13:04:36.330Z,156481.81
2023-09-03T13:07:08.234Z,156411.28
2023-09-03T13:09:39.233Z,156379.91
2023-09-03T13:12:10.893Z,156389.06
2023-09-03T13:14:47.339Z,156462.22
2023-09-03T13:17:18.162Z,156518.34
2023-09-03T13:19:48.802Z,156541.88
2023-09-03T13:22:19.355Z,156605.94
2023-09-03T13:24:50.162Z,156382.53
2023-09-03T13:27:23.229Z,156464.84
2023-09-03T13:29:57.273Z,156524.91
2023-09-03T13:32:28.405Z,156438.69
2023-09-03T13:34:59.156Z,156426.94
2023-09-03T13:37:29.999Z,156370.81
2023-09-03T13:40:00.640Z,156454.34
2023-09-03T13:42:31.724Z,156434.75
2023-09-03T13:45:05.623Z,156395.63
2023-09-03T13:47:37.054Z,156407.34
2023-09-03T13:50:09.353Z,156423.03
2023-09-03T13:52:40.667Z,156472.66
2023-09-03T13:55:12.682Z,156415.22
2023-09-03T13:57:43.290Z,156470.06
2023-09-03T14:00:20.149Z,156588.94
2023-09-03T14:02:51.415Z,156510.56
2023-09-03T14:05:24.299Z,156377.31
2023-09-03T14:07:56.551Z,156361.66
2023-09-03T14:10:31.424Z,156421.72
2023-09-03T14:13:02.564Z,156400.84
2023-09-03T14:15:37.910Z,156374.69
2023-09-03T14:18:13.194Z,156309.38
2023-09-03T14:20:44.162Z,156352.47
2023-09-03T14:23:15.069Z,156349.81
2023-09-03T14:25:46.314Z,156315.91
2023-09-03T14:28:17.345Z,156264.97
2023-09-03T14:30:53.194Z,156238.88
2023-09-03T14:33:24.798Z,156234.94
2023-09-03T14:35:56.737Z,156224.50
2023-09-03T14:38:28.126Z,156212.78
2023-09-03T14:41:01.329Z,156241.50
2023-09-03T14:43:32.139Z,156195.84
2023-09-03T14:46:06.756Z,156215.41
2023-09-03T14:48:37.822Z,156187.97
2023-09-03T14:51:08.652Z,156156.63
2023-09-03T14:53:40.141Z,156232.38
2023-09-03T14:56:11.906Z,156259.75
2023-09-03T14:58:42.517Z,156199.72
2023-09-03T15:01:24.312Z,156172.31
2023-09-03T15:03:55.506Z,156104.38
2023-09-03T15:06:27.177Z,156088.75
2023-09-03T15:08:57.997Z,156086.16
2023-09-03T15:11:29.092Z,156077.00
2023-09-03T15:14:02.056Z,156036.56
2023-09-03T15:16:36.195Z,156009.16
2023-09-03T15:19:07.848Z,155971.34
2023-09-03T15:21:39.889Z,155955.59
2023-09-03T15:24:11.233Z,155951.72
2023-09-03T15:26:43.256Z,155942.56
2023-09-03T15:29:13.743Z,155972.63
2023-09-03T15:31:47.238Z,155954.31
2023-09-03T15:34:18.441Z,155990.91
2023-09-03T15:36:49.140Z,155979.13
2023-09-03T15:39:20.027Z,155962.16
2023-09-03T15:41:50.928Z,155994.78
2023-09-03T15:44:21.475Z,156001.34
2023-09-03T15:46:54.837Z,156022.22
2023-09-03T15:49:28.120Z,156019.56
2023-09-03T15:51:58.655Z,156028.72
2023-09-03T15:54:31.961Z,156050.94
2023-09-03T15:57:03.141Z,156033.94
2023-09-03T15:59:37.468Z,156002.63
2023-09-03T16:02:11.137Z,155964.72
2023-09-03T16:04:43.340Z,155958.22
2023-09-03T16:07:14.821Z,155983.06
2023-09-03T16:09:46.472Z,155985.66
2023-09-03T16:12:17.192Z,155981.78
2023-09-03T16:14:49.970Z,155963.44
2023-09-03T16:17:23.229Z,155930.81
2023-09-03T16:19:55.690Z,155920.38
2023-09-03T16:22:28.581Z,155900.81
2023-09-03T16:24:59.418Z,155883.88
2023-09-03T16:27:30.887Z,155864.31
2023-09-03T16:30:02.203Z,155848.66
2023-09-03T16:32:35.918Z,155827.81
2023-09-03T16:35:07.069Z,155826.50
2023-09-03T16:37:38.242Z,155822.59
2023-09-03T16:40:12.038Z,155810.81
2023-09-03T16:42:43.204Z,155789.97
2023-09-03T16:45:22.638Z,155791.25
2023-09-03T16:47:56.425Z,155795.19
2023-09-03T16:50:29.402Z,155759.91
2023-09-03T16:53:00.184Z,155745.56
2023-09-03T16:55:31.022Z,155736.44
2023-09-03T16:58:01.810Z,155733.84
2023-09-03T17:00:33.091Z,155711.66
2023-09-03T17:03:07.796Z,155714.28
2023-09-03T17:05:39.928Z,155693.44
2023-09-03T17:08:11.923Z,155693.44
2023-09-03T17:10:43.432Z,155692.16
2023-09-03T17:13:16.450Z,155698.66
2023-09-03T17:15:52.665Z,155680.38
2023-09-03T17:18:32.292Z,155663.47
2023-09-03T17:21:02.812Z,155653.03
2023-09-03T17:23:33.760Z,155638.69
2023-09-03T17:26:25.143Z,155629.56
2023-09-03T17:29:02.764Z,155591.75
2023-09-03T17:31:34.750Z,155594.38
2023-09-03T17:34:08.744Z,155598.28
2023-09-03T17:36:39.767Z,155589.16
2023-09-03T17:39:11.628Z,155564.41
2023-09-03T17:41:42.494Z,155564.41
2023-09-03T17:44:14.211Z,155551.34
2023-09-03T17:46:46.399Z,155533.09
2023-09-03T17:49:19.934Z,155530.44
2023-09-03T17:51:51.373Z,155533.09
2023-09-03T17:54:22.414Z,155510.91
2023-09-03T17:56:54.023Z,155501.78
2023-09-03T17:59:25.304Z,155493.97
2023-09-03T18:01:59.674Z,155480.94
2023-09-03T18:04:34.131Z,155480.94
2023-09-03T18:07:05.442Z,155460.09
2023-09-03T18:09:40.659Z,155437.97
2023-09-03T18:12:11.824Z,155431.41
2023-09-03T18:14:50.184Z,155430.13
2023-09-03T18:17:22.157Z,155421.00
2023-09-03T18:19:56.509Z,155410.56
2023-09-03T18:22:29.024Z,155380.63
2023-09-03T18:25:05.737Z,155379.31
2023-09-03T18:27:38.312Z,155362.34
2023-09-03T18:30:13.862Z,155344.16
2023-09-03T18:32:48.146Z,155345.44
2023-09-03T18:35:24.783Z,155335.03
2023-09-03T18:37:59.667Z,155316.72
2023-09-03T18:40:33.346Z,155306.31
2023-09-03T18:43:03.867Z,155306.31
2023-09-03T18:45:35.421Z,155295.91
2023-09-03T18:48:08.729Z,155285.47
2023-09-03T18:50:43.826Z,155275.06
2023-09-03T18:53:15.128Z,155234.69
2023-09-03T18:55:46.876Z,155241.19
2023-09-03T18:58:17.576Z,155236.00
2023-09-03T19:00:50.692Z,155236.00
2023-09-03T19:03:21.642Z,155219.06
2023-09-03T19:05:55.912Z,155202.13
2023-09-03T19:08:27.262Z,155220.38
2023-09-03T19:11:02.351Z,155203.41
2023-09-03T19:13:33.115Z,155202.13
2023-09-03T19:16:05.556Z,155204.75
2023-09-03T19:18:36.391Z,155185.22
2023-09-03T19:21:11.324Z,155185.22
2023-09-03T19:23:44.564Z,155138.31
2023-09-03T19:26:16.752Z,155117.47
2023-09-03T19:28:50.135Z,155118.78
2023-09-03T19:31:20.763Z,155122.69
2023-09-03T19:33:54.666Z,155116.19
2023-09-03T19:36:27.938Z,155094.03
2023-09-03T19:38:59.069Z,155101.88
2023-09-03T19:41:29.682Z,155095.38
2023-09-03T19:44:01.034Z,155084.91
2023-09-03T19:46:31.661Z,155060.19
2023-09-03T19:49:02.528Z,155060.19
2023-09-03T19:51:35.916Z,155039.31
2023-09-03T19:54:06.421Z,155047.16
2023-09-03T19:56:37.663Z,155014.59
2023-09-03T19:59:08.850Z,155005.50
2023-09-03T20:01:39.713Z,154995.09
2023-09-03T20:04:10.409Z,154983.34
2023-09-03T20:06:43.916Z,154975.56
2023-09-03T20:09:14.802Z,154959.91
2023-09-03T20:11:45.357Z,154936.53
2023-09-03T20:14:16.227Z,154922.22
2023-09-03T20:16:47.024Z,154914.38
2023-09-03T20:19:20.026Z,154892.28
2023-09-03T20:21:57.450Z,154872.75
2023-09-03T20:24:28.314Z,154853.25
2023-09-03T20:26:59.109Z,154831.09
2023-09-03T20:29:30.243Z,154816.78
2023-09-03T20:32:04.205Z,154805.03
2023-09-03T20:34:38.589Z,154797.25
2023-09-03T20:37:13.719Z,154782.94
2023-09-03T20:39:50.554Z,154777.75
2023-09-03T20:42:22.091Z,154762.13
2023-09-03T20:44:54.032Z,154747.81
2023-09-03T20:47:25.597Z,154724.41
2023-09-03T20:49:56.967Z,154694.50
2023-09-03T20:52:36.418Z,154682.81
2023-09-03T20:55:07.729Z,154680.19
2023-09-03T20:57:39.735Z,154669.78
2023-09-03T21:00:12.726Z,154655.47
2023-09-03T21:02:43.483Z,154650.28
2023-09-03T21:05:15.138Z,154641.16
2023-09-03T21:07:49.520Z,154634.66
2023-09-03T21:10:20.415Z,154619.06
2023-09-03T21:12:51.147Z,154613.88
2023-09-03T21:15:22.973Z,154593.09
2023-09-03T21:17:54.249Z,154582.63
2023-09-03T21:20:25.507Z,154598.28
2023-09-03T21:22:59.083Z,154589.13
2023-09-03T21:25:29.827Z,154587.84
2023-09-03T21:28:01.665Z,154578.72
2023-09-03T21:30:34.810Z,154564.41
2023-09-03T21:33:06.184Z,154573.53
2023-09-03T21:35:41.308Z,154552.72
2023-09-03T21:38:15.406Z,154538.44
2023-09-03T21:40:46.657Z,154541.00
2023-09-03T21:43:18.400Z,154534.50
2023-09-03T21:45:49.699Z,154534.50
2023-09-03T21:48:23.183Z,154524.13
2023-09-03T21:51:05.492Z,154528.03
2023-09-03T21:53:47.358Z,154494.22
2023-09-03T21:56:17.951Z,154478.63
2023-09-03T21:58:50.098Z,154481.22
2023-09-03T22:01:23.001Z,154483.81
2023-09-03T22:03:53.448Z,154482.50
2023-09-03T22:06:24.746Z,154483.81
2023-09-03T22:08:59.079Z,154494.22
2023-09-03T22:11:29.537Z,154487.69
2023-09-03T22:14:00.030Z,154512.38
2023-09-03T22:16:31.153Z,154494.22
2023-09-03T22:19:12.961Z,154504.63
2023-09-03T22:21:47.765Z,154513.72
2023-09-03T22:24:22.348Z,154498.13
2023-09-03T22:26:54.129Z,154498.13
2023-09-03T22:29:24.658Z,154499.41
2023-09-03T22:31:55.443Z,154502.00
2023-09-03T22:34:26.703Z,154499.41
2023-09-03T22:36:57.598Z,154490.31
2023-09-03T22:39:31.668Z,154486.41
2023-09-03T22:42:02.212Z,154459.13
2023-09-03T22:44:32.712Z,154456.50
2023-09-03T22:47:03.627Z,154459.13
2023-09-03T22:49:34.362Z,154444.81
2023-09-03T22:52:05.554Z,154453.94
2023-09-03T22:54:40.404Z,154447.41
2023-09-03T22:57:11.481Z,154447.41
2023-09-03T22:59:42.018Z,154444.81
2023-09-03T23:02:12.851Z,154452.59
2023-09-03T23:04:43.254Z,154440.91
2023-09-03T23:07:14.436Z,154446.13
2023-09-03T23:09:48.283Z,154442.19
2023-09-03T23:12:19.110Z,154431.81
2023-09-03T23:14:49.703Z,154418.84
2023-09-03T23:17:21.002Z,154425.31
2023-09-03T23:19:52.743Z,154400.63
2023-09-03T23:22:23.027Z,154387.63
2023-09-03T23:24:56.311Z,154369.47
2023-09-03T23:27:29.907Z,154359.06
2023-09-03T23:30:00.665Z,154351.25
2023-09-03T23:32:31.588Z,154327.84
2023-09-03T23:35:01.802Z,154313.50
2023-09-03T23:37:32.319Z,154300.53
2023-09-03T23:40:07.210Z,154290.16
2023-09-03T23:42:38.956Z,154287.53
2023-09-03T23:45:12.843Z,154266.75
2023-09-03T23:47:44.876Z,154249.88
2023-09-03T23:50:15.428Z,154227.78
2023-09-03T23:52:45.865Z,154217.38
2023-09-03T23:55:19.156Z,154226.50
2023-09-03T23:57:49.445Z,154210.91
